createdAt,value
2023-03-22T00:01:23.409Z,26.63
2023-03-22T00:03:51.776Z,24.63
2023-03-22T00:06:19.862Z,22.73
2023-03-22T00:08:50.808Z,24.80
2023-03-22T00:11:19.860Z,26.42
2023-03-22T00:13:47.226Z,26.23
2023-03-22T00:16:15.518Z,32.55
2023-03-22T00:18:43.325Z,23.23
2023-03-22T00:21:14.949Z,22.80
2023-03-22T00:23:42.959Z,26.23
2023-03-22T00:26:11.565Z,29.05
2023-03-22T00:28:39.848Z,26.85
2023-03-22T00:31:07.693Z,36.08
2023-03-22T00:33:35.733Z,20.33
2023-03-22T00:36:11.094Z,33.22
2023-03-22T00:38:45.383Z,28.77
2023-03-22T00:41:16.287Z,21.00
2023-03-22T00:43:46.759Z,23.67
2023-03-22T00:46:15.627Z,22.52
2023-03-22T00:48:43.828Z,19.63
2023-03-22T00:51:11.684Z,19.85
2023-03-22T00:53:43.117Z,26.02
2023-03-22T00:56:15.792Z,22.33
2023-03-22T00:58:55.134Z,23.92
2023-03-22T01:01:23.237Z,24.83
2023-03-22T01:03:51.043Z,22.55
2023-03-22T01:06:19.048Z,24.00
2023-03-22T01:08:46.345Z,26.58
2023-03-22T01:11:13.551Z,19.40
2023-03-22T01:13:42.031Z,24.42
2023-03-22T01:16:10.197Z,20.23
2023-03-22T01:18:37.879Z,23.05
2023-03-22T01:21:06.409Z,20.80
2023-03-22T01:23:34.249Z,20.65
2023-03-22T01:26:02.117Z,20.70
2023-03-22T01:28:30.335Z,21.55
2023-03-22T01:31:01.824Z,22.10
2023-03-22T01:33:29.664Z,22.70
2023-03-22T01:35:57.144Z,22.20
2023-03-22T01:38:24.589Z,20.50
2023-03-22T01:40:58.887Z,26.05
2023-03-22T01:43:28.612Z,23.42
2023-03-22T01:45:58.148Z,26.55
2023-03-22T01:48:48.684Z,25.63
2023-03-22T01:51:22.032Z,30.88
2023-03-22T01:54:24.531Z,21.17
2023-03-22T01:56:52.639Z,21.33
2023-03-22T01:59:31.184Z,21.10
2023-03-22T02:02:15.021Z,20.90
2023-03-22T02:04:42.591Z,24.48
2023-03-22T02:07:15.435Z,19.00
2023-03-22T02:12:40.350Z,20.30
2023-03-22T02:15:49.199Z,19.80
2023-03-22T02:19:10.562Z,23.02
2023-03-22T02:21:59.352Z,18.75
2023-03-22T02:25:01.972Z,20.55
2023-03-22T02:27:42.219Z,21.15
2023-03-22T02:30:39.421Z,18.75
2023-03-22T02:33:15.566Z,21.90
2023-03-22T02:35:48.534Z,19.35
2023-03-22T02:38:52.751Z,21.95
2023-03-22T02:41:39.151Z,21.95
2023-03-22T02:44:09.146Z,18.73
2023-03-22T02:46:36.505Z,25.00
2023-03-22T02:49:14.587Z,26.10
2023-03-22T02:51:48.369Z,21.58
2023-03-22T02:54:35.248Z,18.77
2023-03-22T02:57:14.005Z,21.48
2023-03-22T02:59:42.849Z,17.52
2023-03-22T03:02:13.637Z,16.75
2023-03-22T03:04:46.278Z,19.85
2023-03-22T03:07:19.518Z,18.27
2023-03-22T03:09:48.110Z,21.10
2023-03-22T03:12:20.254Z,19.52
2023-03-22T03:14:48.524Z,23.38
2023-03-22T03:17:18.744Z,18.60
2023-03-22T03:20:11.116Z,22.10
2023-03-22T03:23:03.544Z,24.15
2023-03-22T03:26:01.796Z,22.52
2023-03-22T03:28:49.874Z,24.58
2023-03-22T03:31:30.618Z,20.52
2023-03-22T03:34:13.596Z,20.95
2023-03-22T03:36:50.265Z,21.75
2023-03-22T03:39:20.728Z,23.17
2023-03-22T03:41:50.122Z,23.48
2023-03-22T03:44:19.392Z,26.85
2023-03-22T03:46:49.109Z,19.30
2023-03-22T03:49:17.892Z,21.52
2023-03-22T03:51:56.194Z,24.38
2023-03-22T03:54:24.389Z,25.38
2023-03-22T03:56:51.993Z,26.80
2023-03-22T03:59:21.062Z,29.20
2023-03-22T04:01:51.740Z,25.60
2023-03-22T04:04:28.265Z,29.50
2023-03-22T04:07:07.274Z,27.05
2023-03-22T04:09:39.513Z,26.58
2023-03-22T04:12:15.782Z,26.42
2023-03-22T04:14:48.612Z,29.98
2023-03-22T04:17:25.706Z,30.10
2023-03-22T04:19:56.624Z,28.98
2023-03-22T04:22:25.260Z,32.35
2023-03-22T04:24:52.888Z,32.42
2023-03-22T04:27:22.831Z,31.13
2023-03-22T04:30:02.831Z,28.17
2023-03-22T04:32:50.593Z,31.83
2023-03-22T04:35:22.275Z,30.27
2023-03-22T04:37:49.550Z,27.40
2023-03-22T04:40:20.975Z,31.10
2023-03-22T04:43:04.326Z,32.03
2023-03-22T04:45:58.300Z,28.75
2023-03-22T04:48:32.626Z,28.70
2023-03-22T04:51:04.271Z,31.42
2023-03-22T04:53:39.476Z,34.42
2023-03-22T04:56:10.781Z,30.90
2023-03-22T04:58:43.262Z,27.35
2023-03-22T05:01:12.359Z,40.60
2023-03-22T05:03:43.158Z,26.90
2023-03-22T05:06:11.289Z,30.88
2023-03-22T05:08:49.314Z,24.92
2023-03-22T05:11:20.320Z,24.63
2023-03-22T05:13:59.804Z,27.10
2023-03-22T05:16:28.915Z,27.23
2023-03-22T05:18:57.002Z,26.60
2023-03-22T05:21:28.562Z,25.17
2023-03-22T05:23:59.549Z,27.30
2023-03-22T05:26:27.056Z,27.95
2023-03-22T05:28:56.210Z,29.92
2023-03-22T05:31:34.656Z,25.50
2023-03-22T05:34:03.435Z,27.85
2023-03-22T05:36:36.575Z,24.05
2023-03-22T05:39:20.963Z,25.95
2023-03-22T05:41:51.595Z,28.55
2023-03-22T05:44:19.335Z,27.35
2023-03-22T05:46:59.478Z,22.83
2023-03-22T05:49:34.395Z,27.23
2023-03-22T05:52:04.658Z,23.95
2023-03-22T05:54:46.344Z,23.58
2023-03-22T05:57:14.705Z,22.27
2023-03-22T05:59:42.085Z,24.38
2023-03-22T06:02:14.404Z,25.45
2023-03-22T06:04:41.795Z,26.85
2023-03-22T06:07:14.736Z,25.00
2023-03-22T06:09:54.151Z,28.45
2023-03-22T06:12:24.933Z,23.52
2023-03-22T06:15:15.469Z,21.45
2023-03-22T06:18:04.650Z,23.38
2023-03-22T06:20:37.112Z,23.33
2023-03-22T06:23:10.000Z,25.63
2023-03-22T06:25:39.437Z,27.05
2023-03-22T06:28:08.707Z,23.55
2023-03-22T06:30:38.163Z,23.55
2023-03-22T06:33:25.947Z,22.00
2023-03-22T06:36:00.947Z,21.65
2023-03-22T06:38:38.481Z,23.17
2023-03-22T06:41:05.999Z,23.45
2023-03-22T06:43:33.512Z,22.83
2023-03-22T06:46:12.835Z,20.10
2023-03-22T06:48:47.111Z,22.40
2023-03-22T06:51:16.527Z,24.33
2023-03-22T06:53:45.518Z,23.48
2023-03-22T06:56:13.647Z,21.50
2023-03-22T06:58:49.170Z,25.58
2023-03-22T07:01:16.596Z,23.77
2023-03-22T07:03:44.257Z,21.35
2023-03-22T07:06:15.738Z,18.83
2023-03-22T07:08:47.033Z,21.10
2023-03-22T07:11:18.406Z,21.95
2023-03-22T07:13:50.505Z,23.25
2023-03-22T07:16:22.082Z,22.40
2023-03-22T07:18:56.121Z,17.70
2023-03-22T07:21:36.676Z,17.58
2023-03-22T07:24:12.792Z,18.48
2023-03-22T07:26:41.290Z,16.58
2023-03-22T07:29:10.925Z,16.52
2023-03-22T07:31:39.679Z,19.73
2023-03-22T07:34:22.661Z,20.08
2023-03-22T07:37:03.078Z,15.57
2023-03-22T07:39:31.085Z,21.25
2023-03-22T07:41:59.090Z,20.05
2023-03-22T07:44:26.677Z,17.08
2023-03-22T07:47:09.858Z,15.90
2023-03-22T07:49:45.474Z,15.15
2023-03-22T07:52:26.593Z,17.55
2023-03-22T07:54:54.466Z,13.52
2023-03-22T07:57:21.834Z,17.92
2023-03-22T07:59:58.773Z,18.15
2023-03-22T08:02:46.056Z,17.02
2023-03-22T08:05:33.611Z,17.48
2023-03-22T08:08:03.199Z,17.77
2023-03-22T08:10:31.845Z,18.23
2023-03-22T08:12:59.621Z,18.48
2023-03-22T08:15:28.029Z,20.05
2023-03-22T08:17:58.047Z,17.58
2023-03-22T08:20:32.569Z,19.42
2023-03-22T08:23:04.593Z,17.23
2023-03-22T08:25:44.179Z,16.85
2023-03-22T08:28:14.529Z,19.92
2023-03-22T08:31:04.617Z,18.83
2023-03-22T08:33:33.450Z,17.58
2023-03-22T08:36:13.745Z,21.92
2023-03-22T08:38:50.511Z,19.42
2023-03-22T08:41:21.202Z,20.27
2023-03-22T08:43:48.631Z,23.90
2023-03-22T08:46:16.154Z,17.67
2023-03-22T08:48:50.598Z,22.17
2023-03-22T08:51:33.045Z,19.50
2023-03-22T08:54:12.411Z,23.50
2023-03-22T08:56:59.181Z,18.45
2023-03-22T08:59:46.798Z,21.25
2023-03-22T09:02:26.055Z,15.88
2023-03-22T09:04:54.422Z,17.95
2023-03-22T09:07:22.528Z,16.88
2023-03-22T09:09:59.232Z,14.77
2023-03-22T09:12:26.646Z,16.00
2023-03-22T09:14:56.473Z,17.70
2023-03-22T09:17:26.411Z,20.88
2023-03-22T09:20:05.797Z,20.88
2023-03-22T09:22:39.011Z,21.30
2023-03-22T09:25:07.452Z,18.77
2023-03-22T09:27:34.602Z,17.85
2023-03-22T09:30:01.813Z,21.55
2023-03-22T09:32:30.657Z,16.90
2023-03-22T09:35:01.448Z,18.83
2023-03-22T09:37:36.855Z,16.08
2023-03-22T09:40:06.091Z,18.25
2023-03-22T09:42:40.962Z,16.83
2023-03-22T09:45:27.785Z,16.92
2023-03-22T09:47:57.634Z,19.13
2023-03-22T09:50:29.473Z,21.92
2023-03-22T09:52:57.013Z,20.45
2023-03-22T09:55:39.303Z,18.55
2023-03-22T09:58:33.014Z,21.35
2023-03-22T10:01:12.140Z,14.90
2023-03-22T10:03:54.583Z,15.35
2023-03-22T10:06:24.672Z,19.77
2023-03-22T10:09:36.354Z,17.60
2023-03-22T10:12:12.033Z,22.27
2023-03-22T10:15:05.880Z,21.17
2023-03-22T10:17:36.264Z,23.05
2023-03-22T10:20:12.281Z,18.02
2023-03-22T10:22:43.953Z,23.02
2023-03-22T10:25:17.950Z,18.00
2023-03-22T10:27:48.850Z,17.13
2023-03-22T10:30:34.187Z,20.15
2023-03-22T10:33:12.306Z,20.00
2023-03-22T10:35:41.829Z,17.25
2023-03-22T10:38:27.654Z,21.95
2023-03-22T10:40:58.529Z,16.27
2023-03-22T10:43:37.449Z,16.25
2023-03-22T10:46:09.190Z,14.82
2023-03-22T10:48:44.118Z,17.60
2023-03-22T10:51:27.357Z,18.08
2023-03-22T10:53:56.380Z,15.05
2023-03-22T10:56:23.732Z,14.95
2023-03-22T10:58:52.053Z,14.85
2023-03-22T11:01:46.208Z,14.32
2023-03-22T11:04:15.797Z,13.80
2023-03-22T11:06:56.116Z,12.98
2023-03-22T11:09:24.876Z,12.32
2023-03-22T11:12:00.630Z,9.07
2023-03-22T11:14:37.568Z,7.35
2023-03-22T11:17:14.660Z,11.18
2023-03-22T11:19:54.116Z,7.30
2023-03-22T11:22:33.648Z,10.98
2023-03-22T11:25:01.816Z,10.90
2023-03-22T11:27:37.110Z,8.02
2023-03-22T11:30:40.304Z,6.45
2023-03-22T11:33:18.802Z,6.82
2023-03-22T11:35:53.836Z,8.05
2023-03-22T11:38:39.518Z,6.18
2023-03-22T11:41:31.135Z,5.97
2023-03-22T11:44:03.694Z,8.63
2023-03-22T11:46:32.338Z,5.97
2023-03-22T11:49:04.350Z,6.45
2023-03-22T11:51:35.273Z,7.60
2023-03-22T11:54:10.604Z,5.65
2023-03-22T11:56:43.370Z,5.03
2023-03-22T11:59:16.860Z,5.80
2023-03-22T12:02:00.931Z,7.10
2023-03-22T12:04:31.447Z,8.13
2023-03-22T12:07:01.228Z,5.75
2023-03-22T12:09:40.735Z,5.10
2023-03-22T12:12:19.360Z,6.97
2023-03-22T12:15:06.866Z,5.20
2023-03-22T12:17:45.159Z,6.90
2023-03-22T12:20:27.693Z,4.78
2023-03-22T12:22:56.500Z,5.85
2023-03-22T12:25:29.267Z,7.63
2023-03-22T12:28:07.674Z,6.07
2023-03-22T12:30:48.615Z,5.35
2023-03-22T12:33:21.815Z,5.07
2023-03-22T12:35:52.356Z,7.50
2023-03-22T12:38:38.605Z,9.07
2023-03-22T12:41:11.186Z,7.90
2023-03-22T12:43:51.341Z,5.53
2023-03-22T12:46:23.914Z,13.82
2023-03-22T12:48:57.927Z,9.15
2023-03-22T12:51:25.866Z,10.75
2023-03-22T12:53:56.868Z,6.80
2023-03-22T12:56:38.805Z,9.40
2023-03-22T12:59:14.060Z,9.27
2023-03-22T13:02:35.056Z,10.52
2023-03-22T13:05:05.570Z,6.68
2023-03-22T13:07:54.472Z,7.80
2023-03-22T13:10:30.088Z,8.38
2023-03-22T13:13:33.160Z,6.32
2023-03-22T13:16:09.181Z,5.53
2023-03-22T13:18:37.734Z,10.88
2023-03-22T13:21:23.874Z,7.13
2023-03-22T13:24:04.680Z,8.50
2023-03-22T13:26:46.176Z,8.02
2023-03-22T13:29:38.306Z,4.60
2023-03-22T13:32:25.522Z,4.70
2023-03-22T13:34:53.562Z,6.65
2023-03-22T13:37:37.718Z,6.53
2023-03-22T13:40:42.808Z,3.55
2023-03-22T13:43:35.769Z,7.60
2023-03-22T13:46:38.217Z,4.18
2023-03-22T13:49:26.551Z,5.20
2023-03-22T13:51:57.289Z,7.45
2023-03-22T13:54:37.848Z,7.35
2023-03-22T13:57:15.356Z,3.17
2023-03-22T14:00:11.160Z,3.00
2023-03-22T14:02:43.146Z,4.43
2023-03-22T14:05:21.328Z,4.75
2023-03-22T14:07:56.353Z,4.95
2023-03-22T14:10:27.031Z,4.63
2023-03-22T14:13:05.794Z,5.38
2023-03-22T14:15:38.229Z,5.65
2023-03-22T14:18:29.805Z,7.03
2023-03-22T14:21:05.257Z,2.88
